createdAt,value
2018-09-25T00:00:18.770Z,95.36
2018-09-25T00:01:18.756Z,95.77
2018-09-25T00:02:18.743Z,95.87
2018-09-25T00:03:18.762Z,95.87
2018-09-25T00:04:18.719Z,96.08
2018-09-25T00:05:18.710Z,95.77
2018-09-25T00:06:18.701Z,95.77
2018-09-25T00:07:18.687Z,95.46
2018-09-25T00:08:18.700Z,95.67
2018-09-25T00:09:18.678Z,95.77
2018-09-25T00:10:18.675Z,95.77
2018-09-25T00:11:18.668Z,95.67
2018-09-25T00:12:18.635Z,95.56
2018-09-25T00:13:18.642Z,96.19
2018-09-25T00:14:18.614Z,96.34
2018-09-25T00:15:18.595Z,96.24
2018-09-25T00:16:18.585Z,96.34
2018-09-25T00:17:18.578Z,96.45
2018-09-25T00:18:18.586Z,96.24
2018-09-25T00:19:18.567Z,96.34
2018-09-25T00:20:18.546Z,96.51
2018-09-25T00:21:18.529Z,96.61
2018-09-25T00:22:18.552Z,96.30
2018-09-25T00:23:18.511Z,95.57
2018-09-25T00:24:18.526Z,95.68
2018-09-25T00:25:18.491Z,95.68
2018-09-25T00:26:18.479Z,95.27
2018-09-25T00:27:18.464Z,95.37
2018-09-25T00:28:18.453Z,95.27
2018-09-25T00:29:18.471Z,95.48
2018-09-25T00:30:18.435Z,95.48
2018-09-25T00:31:18.432Z,95.48
2018-09-25T00:32:18.423Z,95.48
2018-09-25T00:33:18.439Z,94.85
2018-09-25T00:34:18.409Z,95.37
2018-09-25T00:35:18.405Z,94.96
2018-09-25T00:36:18.368Z,95.27
2018-09-25T00:37:18.357Z,95.57
2018-09-25T00:38:18.367Z,95.37
2018-09-25T00:39:18.336Z,95.06
2018-09-25T00:40:18.349Z,95.21
2018-09-25T00:41:18.309Z,94.48
2018-09-25T00:42:18.304Z,94.59
2018-09-25T00:43:18.305Z,94.48
2018-09-25T00:44:18.279Z,93.76
2018-09-25T00:45:18.305Z,93.39
2018-09-25T00:46:18.253Z,93.49
2018-09-25T00:47:18.267Z,94.07
2018-09-25T00:48:18.243Z,93.76
2018-09-25T00:49:18.238Z,94.53
2018-09-25T00:50:18.239Z,94.47
2018-09-25T00:51:18.198Z,94.47
2018-09-25T00:52:18.209Z,94.57
2018-09-25T00:53:18.177Z,94.47
2018-09-25T00:54:18.165Z,94.68
2018-09-25T00:55:18.168Z,94.57
2018-09-25T00:56:18.143Z,94.57
2018-09-25T00:57:18.151Z,94.37
2018-09-25T00:58:18.158Z,94.26
2018-09-25T00:59:18.110Z,94.68
2018-09-25T01:00:18.099Z,95.50
2018-09-25T01:01:18.097Z,95.71
2018-09-25T01:02:18.079Z,95.09
2018-09-25T01:03:18.115Z,95.34
2018-09-25T01:04:18.056Z,95.24
2018-09-25T01:05:18.043Z,95.44
2018-09-25T01:06:18.036Z,95.54
2018-09-25T01:07:18.035Z,95.54
2018-09-25T01:08:18.048Z,95.44
2018-09-25T01:09:17.999Z,95.34
2018-09-25T01:10:17.988Z,95.49
2018-09-25T01:11:17.983Z,95.28
2018-09-25T01:12:17.973Z,95.39
2018-09-25T01:13:17.978Z,95.70
2018-09-25T01:14:17.943Z,95.34
2018-09-25T01:15:17.936Z,95.86
2018-09-25T01:16:17.921Z,96.17
2018-09-25T01:17:17.916Z,96.01
2018-09-25T01:18:17.935Z,95.59
2018-09-25T01:19:17.950Z,95.39
2018-09-25T01:20:17.881Z,95.70
2018-09-25T01:21:25.701Z,95.80
2018-09-25T01:22:17.869Z,95.59
2018-09-25T01:23:17.841Z,95.90
2018-09-25T01:24:17.849Z,96.01
2018-09-25T01:25:17.818Z,96.11
2018-09-25T01:26:17.806Z,95.90
2018-09-25T01:27:17.800Z,96.11
2018-09-25T01:28:17.867Z,96.31
2018-09-25T01:29:17.802Z,96.83
2018-09-25T01:30:17.787Z,96.01
2018-09-25T01:31:17.758Z,95.90
2018-09-25T01:32:17.739Z,95.90
2018-09-25T01:33:17.727Z,95.90
2018-09-25T01:34:17.718Z,96.01
2018-09-25T01:35:17.737Z,95.64
2018-09-25T01:36:17.734Z,95.74
2018-09-25T01:37:17.681Z,95.95
2018-09-25T01:38:17.672Z,95.53
2018-09-25T01:39:17.688Z,95.95
2018-09-25T01:40:17.653Z,96.05
2018-09-25T01:41:17.641Z,95.84
2018-09-25T01:42:17.661Z,95.95
2018-09-25T01:43:17.616Z,96.78
2018-09-25T01:44:17.606Z,96.78
2018-09-25T01:45:17.595Z,96.36
2018-09-25T01:46:17.580Z,96.67
2018-09-25T01:47:17.595Z,97.09
2018-09-25T01:48:17.558Z,96.88
2018-09-25T01:49:17.550Z,96.88
2018-09-25T01:50:17.545Z,96.67
2018-09-25T01:51:25.231Z,96.88
2018-09-25T01:52:27.764Z,96.88
2018-09-25T01:53:25.335Z,96.67
2018-09-25T01:54:25.343Z,96.98
2018-09-25T01:55:17.481Z,96.78
2018-09-25T01:56:26.872Z,97.09
2018-09-25T01:57:17.464Z,96.88
2018-09-25T01:58:17.475Z,97.09
2018-09-25T01:59:17.435Z,96.98
2018-09-25T02:00:17.429Z,96.98
2018-09-25T02:01:17.413Z,97.09
2018-09-25T02:02:17.402Z,96.78
2018-09-25T02:03:17.417Z,96.88
2018-09-25T02:04:17.412Z,96.78
2018-09-25T02:05:17.371Z,96.98
2018-09-25T02:06:17.358Z,96.78
2018-09-25T02:07:17.347Z,96.78
2018-09-25T02:08:17.385Z,96.57
2018-09-25T02:09:17.343Z,96.47
2018-09-25T02:10:17.341Z,96.31
2018-09-25T02:11:17.302Z,96.57
2018-09-25T02:12:17.316Z,96.78
2018-09-25T02:13:17.297Z,95.95
2018-09-25T02:14:17.271Z,95.84
2018-09-25T02:15:17.279Z,95.74
2018-09-25T02:16:17.279Z,96.05
2018-09-25T02:17:17.235Z,96.05
2018-09-25T02:18:17.227Z,95.53
2018-09-25T02:19:17.215Z,95.43
2018-09-25T02:20:17.224Z,95.84
2018-09-25T02:21:17.192Z,96.36
2018-09-25T02:22:17.185Z,95.95
2018-09-25T02:23:17.177Z,96.15
2018-09-25T02:24:17.194Z,95.95
2018-09-25T02:25:17.148Z,95.84
2018-09-25T02:26:17.138Z,95.84
2018-09-25T02:27:17.133Z,96.78
2018-09-25T02:28:17.112Z,96.67
2018-09-25T02:29:17.122Z,96.47
2018-09-25T02:30:17.091Z,96.78
2018-09-25T02:31:17.111Z,96.47
2018-09-25T02:32:17.067Z,96.47
2018-09-25T02:33:17.071Z,96.21
2018-09-25T02:34:17.045Z,96.42
2018-09-25T02:35:17.035Z,96.52
2018-09-25T02:36:17.044Z,96.73
2018-09-25T02:37:17.010Z,96.73
2018-09-25T02:38:17.002Z,96.78
2018-09-25T02:39:17.016Z,96.83
2018-09-25T02:40:16.976Z,96.62
2018-09-25T02:41:16.963Z,96.42
2018-09-25T02:42:16.955Z,96.52
2018-09-25T02:43:16.947Z,97.04
2018-09-25T02:44:16.979Z,96.52
2018-09-25T02:45:16.918Z,96.31
2018-09-25T02:46:16.940Z,95.80
2018-09-25T02:47:16.899Z,95.80
2018-09-25T02:48:16.886Z,95.80
2018-09-25T02:49:16.877Z,95.70
2018-09-25T02:50:16.864Z,95.65
2018-09-25T02:51:16.886Z,95.65
2018-09-25T02:52:16.838Z,95.34
2018-09-25T02:53:16.828Z,95.44
2018-09-25T02:54:16.816Z,95.34
2018-09-25T02:55:16.807Z,95.75
2018-09-25T02:56:16.823Z,95.92
2018-09-25T02:57:16.784Z,95.24
2018-09-25T02:58:16.778Z,95.34
2018-09-25T02:59:16.763Z,95.54
2018-09-25T03:00:16.771Z,95.14
2018-09-25T03:01:16.745Z,95.14
2018-09-25T03:02:16.742Z,95.54
2018-09-25T03:03:16.718Z,95.24
2018-09-25T03:04:16.726Z,95.24
2018-09-25T03:05:16.696Z,95.44
2018-09-25T03:06:16.694Z,95.65
2018-09-25T03:07:16.675Z,95.44
2018-09-25T03:08:16.693Z,95.54
2018-09-25T03:09:16.652Z,95.65
2018-09-25T03:10:16.639Z,95.44
2018-09-25T03:11:16.628Z,95.75
2018-09-25T03:12:16.638Z,95.71
2018-09-25T03:13:16.614Z,95.71
2018-09-25T03:14:16.605Z,95.40
2018-09-25T03:15:16.583Z,95.50
2018-09-25T03:16:16.569Z,95.61
2018-09-25T03:17:16.599Z,95.40
2018-09-25T03:18:16.553Z,95.71
2018-09-25T03:19:16.590Z,95.29
2018-09-25T03:20:16.527Z,95.56
2018-09-25T03:21:16.517Z,95.50
2018-09-25T03:22:16.546Z,95.67
2018-09-25T03:23:16.494Z,95.77
2018-09-25T03:24:16.490Z,95.50
2018-09-25T03:25:16.493Z,95.19
2018-09-25T03:26:16.468Z,95.50
2018-09-25T03:27:16.474Z,95.61
2018-09-25T03:28:16.466Z,95.40
2018-09-25T03:29:16.433Z,95.40
2018-09-25T03:30:16.427Z,95.29
2018-09-25T03:31:16.446Z,95.19
2018-09-25T03:32:16.396Z,95.61
2018-09-25T03:33:16.386Z,95.44
2018-09-25T03:34:16.379Z,95.86
2018-09-25T03:35:16.372Z,95.86
2018-09-25T03:36:16.383Z,95.96
2018-09-25T03:37:16.398Z,96.06
2018-09-25T03:38:16.330Z,95.86
2018-09-25T03:39:16.326Z,96.69
2018-09-25T03:40:16.313Z,96.62
2018-09-25T03:41:16.297Z,96.62
2018-09-25T03:42:16.320Z,96.42
2018-09-25T03:43:16.279Z,96.62
2018-09-25T03:44:16.263Z,96.42
2018-09-25T03:45:16.253Z,96.94
2018-09-25T03:46:16.271Z,97.04
2018-09-25T03:47:16.233Z,96.83
2018-09-25T03:48:16.229Z,96.31
2018-09-25T03:49:16.241Z,97.45
2018-09-25T03:50:16.196Z,97.04
2018-09-25T03:51:16.188Z,97.25
2018-09-25T03:52:16.174Z,97.14
2018-09-25T03:53:16.167Z,97.14
2018-09-25T03:54:16.175Z,97.14
2018-09-25T03:55:16.140Z,96.94
2018-09-25T03:56:16.215Z,96.94
2018-09-25T03:57:16.118Z,97.25
2018-09-25T03:58:16.131Z,97.14
2018-09-25T03:59:16.105Z,97.04
2018-09-25T04:00:16.111Z,97.14
2018-09-25T04:01:16.110Z,97.04
2018-09-25T04:02:16.070Z,96.83
2018-09-25T04:03:16.078Z,96.79
2018-09-25T04:04:16.049Z,96.79
2018-09-25T04:05:16.047Z,96.79
2018-09-25T04:06:16.109Z,97.04
2018-09-25T04:07:16.041Z,96.58
2018-09-25T04:08:16.026Z,96.17
2018-09-25T04:09:15.986Z,96.62
2018-09-25T04:10:15.973Z,96.27
2018-09-25T04:11:15.988Z,96.42
2018-09-25T04:12:15.955Z,96.52
2018-09-25T04:13:15.943Z,96.48
2018-09-25T04:14:15.957Z,96.69
2018-09-25T04:15:15.924Z,96.48
2018-09-25T04:16:15.940Z,97.00
2018-09-25T04:17:15.909Z,96.64
2018-09-25T04:18:15.899Z,96.79
2018-09-25T04:19:15.877Z,96.79
2018-09-25T04:20:15.922Z,96.85
2018-09-25T04:21:15.856Z,96.95
2018-09-25T04:22:15.850Z,96.85
2018-09-25T04:23:15.855Z,96.75
2018-09-25T04:24:15.819Z,96.64
2018-09-25T04:25:15.813Z,96.75
2018-09-25T04:26:15.797Z,96.75
2018-09-25T04:27:15.793Z,96.85
2018-09-25T04:28:15.822Z,96.54
2018-09-25T04:29:15.764Z,96.64
2018-09-25T04:30:15.770Z,96.23
2018-09-25T04:31:15.748Z,96.75
2018-09-25T04:32:15.755Z,96.75
2018-09-25T04:33:15.737Z,96.54
2018-09-25T04:34:15.724Z,96.75
2018-09-25T04:35:15.728Z,96.80
2018-09-25T04:36:15.689Z,96.80
2018-09-25T04:37:15.732Z,96.80
2018-09-25T04:38:15.666Z,96.49
2018-09-25T04:39:15.654Z,96.59
2018-09-25T04:40:15.655Z,96.59
2018-09-25T04:41:15.666Z,96.91
2018-09-25T04:42:15.625Z,96.59
2018-09-25T04:43:24.390Z,96.34
2018-09-25T04:44:15.631Z,96.55
2018-09-25T04:45:15.614Z,96.86
2018-09-25T04:46:15.599Z,96.86
2018-09-25T04:47:23.429Z,96.97
2018-09-25T04:48:15.552Z,96.66
2018-09-25T04:49:15.543Z,97.07
2018-09-25T04:50:15.539Z,96.86
2018-09-25T04:51:24.950Z,96.82
2018-09-25T04:52:15.534Z,96.66
2018-09-25T04:53:15.502Z,96.61
2018-09-25T04:54:15.490Z,96.30
2018-09-25T04:55:23.987Z,96.51
2018-09-25T04:56:15.497Z,96.30
2018-09-25T04:57:15.465Z,95.43
2018-09-25T04:58:15.446Z,95.06
2018-09-25T04:59:15.623Z,94.92
2018-09-25T05:00:23.507Z,94.92
2018-09-25T05:01:15.454Z,95.02
2018-09-25T05:02:15.404Z,95.22
2018-09-25T05:03:15.395Z,95.12
2018-09-25T05:04:15.380Z,95.02
2018-09-25T05:05:15.369Z,94.29
2018-09-25T05:06:15.392Z,94.15
2018-09-25T05:07:15.346Z,94.19
2018-09-25T05:08:23.581Z,94.46
2018-09-25T05:09:15.325Z,94.77
2018-09-25T05:10:15.312Z,94.46
2018-09-25T05:11:15.322Z,94.19
2018-09-25T05:12:22.669Z,94.67
2018-09-25T05:13:23.121Z,94.25
2018-09-25T05:14:23.161Z,93.43
2018-09-25T05:15:23.709Z,93.63
2018-09-25T05:16:15.245Z,93.12
2018-09-25T05:17:15.249Z,93.12
2018-09-25T05:18:25.215Z,93.05
2018-09-25T05:19:23.246Z,93.22
2018-09-25T05:20:23.284Z,93.43
2018-09-25T05:21:15.197Z,94.04
2018-09-25T05:22:15.179Z,93.84
2018-09-25T05:23:15.196Z,93.53
2018-09-25T05:24:22.798Z,93.59
2018-09-25T05:25:15.150Z,94.25
2018-09-25T05:26:22.827Z,94.15
2018-09-25T05:27:15.129Z,94.15
2018-09-25T05:28:24.363Z,94.35
2018-09-25T05:29:15.102Z,94.25
2018-09-25T05:30:22.889Z,94.77
2018-09-25T05:31:15.082Z,94.25
2018-09-25T05:32:15.078Z,94.46
2018-09-25T05:33:15.080Z,94.31
2018-09-25T05:34:15.087Z,93.90
2018-09-25T05:35:15.043Z,93.38
2018-09-25T05:36:15.031Z,93.59
2018-09-25T05:37:15.014Z,93.69
2018-09-25T05:38:15.004Z,93.69
2018-09-25T05:39:15.053Z,93.18
2018-09-25T05:40:14.980Z,93.69
2018-09-25T05:41:14.969Z,93.38
2018-09-25T05:42:14.955Z,93.38
2018-09-25T05:43:14.945Z,93.07
2018-09-25T05:44:14.959Z,93.38
2018-09-25T05:45:14.959Z,93.79
2018-09-25T05:46:14.911Z,93.90
2018-09-25T05:47:14.898Z,93.59
2018-09-25T05:48:14.930Z,94.17
2018-09-25T05:49:14.884Z,94.21
2018-09-25T05:50:14.894Z,93.85
2018-09-25T05:51:14.857Z,93.38
2018-09-25T05:52:14.874Z,93.54
2018-09-25T05:53:14.834Z,93.07
2018-09-25T05:54:14.828Z,93.03
2018-09-25T05:55:14.811Z,92.72
2018-09-25T05:56:14.798Z,93.03
2018-09-25T05:57:14.834Z,92.41
2018-09-25T05:58:14.802Z,92.93
2018-09-25T05:59:14.766Z,92.21
2018-09-25T06:00:14.752Z,92.72
2018-09-25T06:01:14.767Z,92.99
2018-09-25T06:02:14.729Z,93.44
2018-09-25T06:03:14.717Z,92.51
2018-09-25T06:04:14.709Z,91.28
2018-09-25T06:05:14.700Z,90.66
2018-09-25T06:06:14.714Z,90.92
2018-09-25T06:07:14.689Z,91.96
2018-09-25T06:08:14.661Z,92.31
2018-09-25T06:09:14.666Z,91.17
2018-09-25T06:10:14.687Z,90.76
2018-09-25T06:11:14.651Z,90.72
2018-09-25T06:12:14.617Z,91.07
2018-09-25T06:13:14.604Z,90.86
2018-09-25T06:14:14.590Z,91.28
2018-09-25T06:15:14.584Z,92.47
2018-09-25T06:16:14.599Z,91.13
2018-09-25T06:17:14.561Z,89.62
2018-09-25T06:18:14.558Z,90.20
2018-09-25T06:19:14.534Z,90.72
2018-09-25T06:20:14.556Z,90.82
2018-09-25T06:21:14.516Z,90.82
2018-09-25T06:22:14.525Z,90.10
2018-09-25T06:23:14.497Z,90.47
2018-09-25T06:24:14.495Z,90.26
2018-09-25T06:25:14.493Z,90.57
2018-09-25T06:26:14.457Z,90.06
2018-09-25T06:27:14.448Z,89.13
2018-09-25T06:28:14.452Z,90.67
2018-09-25T06:29:14.450Z,90.47
2018-09-25T06:30:14.411Z,91.60
2018-09-25T06:31:14.406Z,91.09
2018-09-25T06:32:14.389Z,90.43
2018-09-25T06:33:14.380Z,90.67
2018-09-25T06:34:14.391Z,90.64
2018-09-25T06:35:14.373Z,90.53
2018-09-25T06:36:14.344Z,89.91
2018-09-25T06:37:14.428Z,90.01
2018-09-25T06:38:14.325Z,88.78
2018-09-25T06:39:14.345Z,88.57
2018-09-25T06:40:14.300Z,89.09
2018-09-25T06:41:14.297Z,88.47
2018-09-25T06:42:14.280Z,88.37
2018-09-25T06:43:14.294Z,88.89
2018-09-25T06:44:14.255Z,88.26
2018-09-25T06:45:14.271Z,88.26
2018-09-25T06:46:14.244Z,88.06
2018-09-25T06:47:14.293Z,88.06
2018-09-25T06:48:14.249Z,89.61
2018-09-25T06:49:14.202Z,88.74
2018-09-25T06:50:14.187Z,89.15
2018-09-25T06:51:14.182Z,87.92
2018-09-25T06:52:14.173Z,88.33
2018-09-25T06:53:14.178Z,86.95
2018-09-25T06:54:14.146Z,86.64
2018-09-25T06:55:14.223Z,86.54
2018-09-25T06:56:14.144Z,86.23
2018-09-25T06:57:14.117Z,86.02
2018-09-25T06:58:14.106Z,86.40
2018-09-25T06:59:14.125Z,86.60
2018-09-25T07:00:14.078Z,85.78
2018-09-25T07:01:14.072Z,85.26
2018-09-25T07:02:14.061Z,85.06
2018-09-25T07:03:14.050Z,86.29
2018-09-25T07:04:14.099Z,85.94
2018-09-25T07:05:14.020Z,85.74
2018-09-25T07:06:14.011Z,86.46
2018-09-25T07:07:13.999Z,86.66
2018-09-25T07:08:13.987Z,86.35
2018-09-25T07:09:14.005Z,86.87
2018-09-25T07:10:14.224Z,86.56
2018-09-25T07:11:13.960Z,85.49
2018-09-25T07:12:13.941Z,84.88
2018-09-25T07:13:13.944Z,85.22
2018-09-25T07:14:13.941Z,84.61
2018-09-25T07:15:13.913Z,85.22
2018-09-25T07:16:13.948Z,85.12
2018-09-25T07:17:13.887Z,83.89
2018-09-25T07:18:13.874Z,84.50
2018-09-25T07:19:13.865Z,85.33
2018-09-25T07:20:13.860Z,85.80
2018-09-25T07:21:13.864Z,86.35
2018-09-25T07:22:13.831Z,85.33
2018-09-25T07:23:13.819Z,84.61
2018-09-25T07:24:13.806Z,85.18
2018-09-25T07:25:13.796Z,84.50
2018-09-25T07:26:13.809Z,83.37
2018-09-25T07:27:13.807Z,84.30
2018-09-25T07:28:13.767Z,84.91
2018-09-25T07:29:13.749Z,85.33
2018-09-25T07:30:13.737Z,86.66
2018-09-25T07:31:13.760Z,86.56
2018-09-25T07:32:13.718Z,85.33
2018-09-25T07:33:13.716Z,85.43
2018-09-25T07:34:13.692Z,84.67
2018-09-25T07:35:13.681Z,84.50
2018-09-25T07:36:13.702Z,85.18
2018-09-25T07:37:13.666Z,84.74
2018-09-25T07:38:13.657Z,84.69
2018-09-25T07:39:13.636Z,83.63
2018-09-25T07:40:13.654Z,82.15
2018-09-25T07:41:13.613Z,79.55
2018-09-25T07:42:13.606Z,79.75
2018-09-25T07:43:13.592Z,78.49
2018-09-25T07:44:13.613Z,77.87
2018-09-25T07:45:13.599Z,78.22
2018-09-25T07:46:13.561Z,78.83
2018-09-25T07:47:13.549Z,78.87
2018-09-25T07:48:13.586Z,79.22
2018-09-25T07:49:13.524Z,81.27
2018-09-25T07:50:13.897Z,81.16
2018-09-25T07:51:13.501Z,80.65
2018-09-25T07:52:13.490Z,79.52
2018-09-25T07:53:13.480Z,80.24
2018-09-25T07:54:13.468Z,79.80
2018-09-25T07:55:13.485Z,82.56
2018-09-25T07:56:13.456Z,81.23
2018-09-25T07:57:13.433Z,80.31
2018-09-25T07:58:13.422Z,80.27
2018-09-25T07:59:13.409Z,79.66
2018-09-25T08:00:13.444Z,80.17
2018-09-25T08:01:13.387Z,79.96
2018-09-25T08:02:13.379Z,80.27
2018-09-25T08:03:13.459Z,78.90
2018-09-25T08:04:13.361Z,79.27
2018-09-25T08:05:13.385Z,78.86
2018-09-25T08:06:13.331Z,77.23
2018-09-25T08:07:13.327Z,75.82
2018-09-25T08:08:13.309Z,76.81
2018-09-25T08:09:13.298Z,78.15
2018-09-25T08:10:13.321Z,76.72
2018-09-25T08:11:13.277Z,76.92
2018-09-25T08:12:13.265Z,76.10
2018-09-25T08:13:13.262Z,75.73
2018-09-25T08:14:13.250Z,78.63
2018-09-25T08:15:13.283Z,79.21
2018-09-25T08:16:13.219Z,76.58
2018-09-25T08:17:13.210Z,77.87
2018-09-25T08:18:13.202Z,78.90
2018-09-25T08:19:13.201Z,78.25
2018-09-25T08:20:22.415Z,79.24
2018-09-25T08:21:13.163Z,78.63
2018-09-25T08:22:13.180Z,77.26
2018-09-25T08:23:13.145Z,75.93
2018-09-25T08:24:13.164Z,74.35
2018-09-25T08:25:13.137Z,74.56
2018-09-25T08:26:13.124Z,76.71
2018-09-25T08:27:13.111Z,76.16
2018-09-25T08:28:13.090Z,76.16
2018-09-25T08:29:13.100Z,75.65
2018-09-25T08:30:13.064Z,76.06
2018-09-25T08:31:13.050Z,75.96
2018-09-25T08:32:13.041Z,74.73
2018-09-25T08:33:13.065Z,74.59
2018-09-25T08:34:13.044Z,73.71
2018-09-25T08:35:13.006Z,74.93
2018-09-25T08:36:12.998Z,73.81
2018-09-25T08:37:12.986Z,74.56
2018-09-25T08:38:12.977Z,73.74
2018-09-25T08:39:13.095Z,74.32
2018-09-25T08:40:12.948Z,74.22
2018-09-25T08:41:12.959Z,75.00
2018-09-25T08:42:12.935Z,74.05
2018-09-25T08:43:12.914Z,74.05
2018-09-25T08:44:12.903Z,73.74
2018-09-25T08:45:12.897Z,74.08
2018-09-25T08:46:12.922Z,73.68
2018-09-25T08:47:12.868Z,74.43
2018-09-25T08:48:12.862Z,74.63
2018-09-25T08:49:12.845Z,74.69
2018-09-25T08:50:12.834Z,73.68
2018-09-25T08:51:12.847Z,74.63
2018-09-25T08:52:12.814Z,74.59
2018-09-25T08:53:12.804Z,74.52
2018-09-25T08:54:12.853Z,73.98
2018-09-25T08:55:12.778Z,74.08
2018-09-25T08:56:12.768Z,74.32
2018-09-25T08:57:12.778Z,75.96
2018-09-25T08:58:12.747Z,73.68
2018-09-25T08:59:12.778Z,73.77
2018-09-25T09:00:12.725Z,74.90
2018-09-25T09:01:12.717Z,73.64
2018-09-25T09:02:12.701Z,73.98
2018-09-25T09:03:12.686Z,74.18
2018-09-25T09:04:12.704Z,74.49
2018-09-25T09:05:12.668Z,74.46
2018-09-25T09:06:12.656Z,73.44
2018-09-25T09:07:12.664Z,73.64
2018-09-25T09:08:12.682Z,72.72
2018-09-25T09:09:12.621Z,72.04
2018-09-25T09:10:12.632Z,72.31
2018-09-25T09:11:12.598Z,73.13
2018-09-25T09:12:12.588Z,71.91
2018-09-25T09:13:12.576Z,73.30
2018-09-25T09:14:12.565Z,71.15
2018-09-25T09:15:12.576Z,72.07
2018-09-25T09:16:12.550Z,72.99
2018-09-25T09:17:12.528Z,71.36
2018-09-25T09:18:12.517Z,71.63
2018-09-25T09:19:12.507Z,71.33
2018-09-25T09:20:12.599Z,69.08
2018-09-25T09:21:12.499Z,68.30
2018-09-25T09:22:12.514Z,68.94
2018-09-25T09:23:12.464Z,69.56
2018-09-25T09:24:12.452Z,70.85
2018-09-25T09:25:12.527Z,70.23
2018-09-25T09:26:12.431Z,69.59
2018-09-25T09:27:12.442Z,68.74
2018-09-25T09:28:12.407Z,67.79
2018-09-25T09:29:12.395Z,67.99
2018-09-25T09:30:12.381Z,68.95
2018-09-25T09:31:12.370Z,69.35
2018-09-25T09:32:12.394Z,70.44
2018-09-25T09:33:12.360Z,67.15
2018-09-25T09:34:12.339Z,64.20
2018-09-25T09:35:12.331Z,65.31
2018-09-25T09:36:12.324Z,66.71
2018-09-25T09:37:12.331Z,65.42
2018-09-25T09:38:12.297Z,66.54
2018-09-25T09:39:12.288Z,67.02
2018-09-25T09:40:12.269Z,65.39
2018-09-25T09:41:12.429Z,66.41
2018-09-25T09:42:12.269Z,65.49
2018-09-25T09:43:12.244Z,67.12
2018-09-25T09:44:12.231Z,66.91
2018-09-25T09:45:12.213Z,68.65
2018-09-25T09:46:12.205Z,68.04
2018-09-25T09:47:12.217Z,69.26
2018-09-25T09:48:12.204Z,69.36
2018-09-25T09:49:12.168Z,67.32
2018-09-25T09:50:12.173Z,66.78
2018-09-25T09:51:12.147Z,67.52
2018-09-25T09:52:12.137Z,67.22
2018-09-25T09:53:12.146Z,67.63
2018-09-25T09:54:12.112Z,68.57
2018-09-25T09:55:12.100Z,69.56
2018-09-25T09:56:12.123Z,67.87
2018-09-25T09:57:12.077Z,64.81
2018-09-25T09:58:12.089Z,67.36
2018-09-25T09:59:12.056Z,68.79
2018-09-25T10:00:12.073Z,66.24
2018-09-25T10:01:12.039Z,67.77
2018-09-25T10:02:12.032Z,67.26
2018-09-25T10:03:12.011Z,67.16
2018-09-25T10:04:12.005Z,67.87
2018-09-25T10:05:12.021Z,65.22
2018-09-25T10:06:11.985Z,66.88
2018-09-25T10:07:12.055Z,66.99
2018-09-25T10:08:11.953Z,65.56
2018-09-25T10:09:11.944Z,65.86
2018-09-25T10:10:11.959Z,65.36
2018-09-25T10:11:11.923Z,66.27
2018-09-25T10:12:11.913Z,66.68
2018-09-25T10:13:11.912Z,68.82
2018-09-25T10:14:11.893Z,68.07
2018-09-25T10:15:11.918Z,69.46
2018-09-25T10:16:11.863Z,67.33
2018-09-25T10:17:11.855Z,65.06
2018-09-25T10:18:11.874Z,65.80
2018-09-25T10:19:11.849Z,66.04
2018-09-25T10:20:11.850Z,66.27
2018-09-25T10:21:11.810Z,65.02
2018-09-25T10:22:11.796Z,64.75
2018-09-25T10:23:11.789Z,68.88
2018-09-25T10:24:11.785Z,66.04
2018-09-25T10:25:11.787Z,66.35
2018-09-25T10:26:11.803Z,64.20
2018-09-25T10:27:11.749Z,65.33
2018-09-25T10:28:11.728Z,64.81
2018-09-25T10:29:11.724Z,65.53
2018-09-25T10:30:11.711Z,64.95
2018-09-25T10:31:11.722Z,65.83
2018-09-25T10:32:11.684Z,65.22
2018-09-25T10:33:11.699Z,64.20
2018-09-25T10:34:11.680Z,63.90
2018-09-25T10:35:11.650Z,67.16
2018-09-25T10:36:11.703Z,65.19
2018-09-25T10:37:11.631Z,64.99
2018-09-25T10:38:11.620Z,64.41
2018-09-25T10:39:11.606Z,66.58
2018-09-25T10:40:11.595Z,66.30
2018-09-25T10:41:11.618Z,65.86
2018-09-25T10:42:11.582Z,67.19
2018-09-25T10:43:11.560Z,67.08
2018-09-25T10:44:11.549Z,66.07
2018-09-25T10:45:11.538Z,65.33
2018-09-25T10:46:11.552Z,66.47
2018-09-25T10:47:11.519Z,66.13
2018-09-25T10:48:11.514Z,68.27
2018-09-25T10:49:11.494Z,66.94
2018-09-25T10:50:11.538Z,67.15
2018-09-25T10:51:11.508Z,68.98
2018-09-25T10:52:11.463Z,68.34
2018-09-25T10:53:11.448Z,67.02
2018-09-25T10:54:11.442Z,67.19
2018-09-25T10:55:11.428Z,67.80
2018-09-25T10:56:11.545Z,66.99
2018-09-25T10:57:11.441Z,64.78
2018-09-25T10:58:11.393Z,67.29
2018-09-25T10:59:11.393Z,64.37
2018-09-25T11:00:11.372Z,65.11
2018-09-25T11:01:11.361Z,67.66
2018-09-25T11:02:11.386Z,67.83
2018-09-25T11:03:11.496Z,67.02
2018-09-25T11:04:11.331Z,66.27
2018-09-25T11:05:11.324Z,66.68
2018-09-25T11:06:11.303Z,65.16
2018-09-25T11:07:11.340Z,65.05
2018-09-25T11:08:11.291Z,66.38
2018-09-25T11:09:11.274Z,67.05
2018-09-25T11:10:11.285Z,65.94
2018-09-25T11:11:11.250Z,66.07
2018-09-25T11:12:11.272Z,64.14
2018-09-25T11:13:11.295Z,64.34
2018-09-25T11:14:11.214Z,63.93
2018-09-25T11:15:11.210Z,64.95
2018-09-25T11:16:11.204Z,65.77
2018-09-25T11:17:11.181Z,66.78
2018-09-25T11:18:11.203Z,66.27
2018-09-25T11:19:11.157Z,63.12
2018-09-25T11:20:11.148Z,64.67
2018-09-25T11:21:11.136Z,65.49
2018-09-25T11:22:11.126Z,64.67
2018-09-25T11:23:11.140Z,64.90
2018-09-25T11:24:18.966Z,66.30
2018-09-25T11:25:11.091Z,63.96
2018-09-25T11:26:11.082Z,63.86
2018-09-25T11:27:11.070Z,63.86
2018-09-25T11:28:11.181Z,62.61
2018-09-25T11:29:11.044Z,64.17
2018-09-25T11:30:11.035Z,64.47
2018-09-25T11:31:11.022Z,64.26
2018-09-25T11:32:11.013Z,65.19
2018-09-25T11:33:11.021Z,65.42
2018-09-25T11:34:10.986Z,67.12
2018-09-25T11:35:10.985Z,65.42
2018-09-25T11:36:11.010Z,66.33
2018-09-25T11:37:10.955Z,64.53
2018-09-25T11:38:10.948Z,68.71
2018-09-25T11:39:10.941Z,67.38
2018-09-25T11:40:10.923Z,70.41
2018-09-25T11:41:20.053Z,65.77
2018-09-25T11:42:10.895Z,65.12
2018-09-25T11:43:10.885Z,61.63
2018-09-25T11:44:10.873Z,61.53
2018-09-25T11:45:18.536Z,61.20
2018-09-25T11:46:10.851Z,60.53
2018-09-25T11:47:10.965Z,60.76
2018-09-25T11:48:10.828Z,60.22
2018-09-25T11:49:10.819Z,60.10
2018-09-25T11:50:10.836Z,62.30
2018-09-25T11:51:10.820Z,61.05
2018-09-25T11:52:10.787Z,56.26
2018-09-25T11:53:18.574Z,56.95
2018-09-25T11:54:10.761Z,55.12
2018-09-25T11:55:10.754Z,57.32
2018-09-25T11:56:10.796Z,57.50
2018-09-25T11:57:10.732Z,56.18
2018-09-25T11:58:18.622Z,53.47
2018-09-25T11:59:10.707Z,49.65
2018-09-25T12:00:10.699Z,51.67
2018-09-25T12:01:10.707Z,52.26
2018-09-25T12:02:18.738Z,53.17
2018-09-25T12:03:10.658Z,53.09
2018-09-25T12:04:10.646Z,52.89
2018-09-25T12:05:10.639Z,54.11
2018-09-25T12:06:19.670Z,53.12
2018-09-25T12:07:10.617Z,55.71
2018-09-25T12:08:10.621Z,54.33
2018-09-25T12:09:10.592Z,55.99
2018-09-25T12:10:18.204Z,55.99
2018-09-25T12:11:10.568Z,57.51
2018-09-25T12:12:10.583Z,55.68
2018-09-25T12:13:10.550Z,54.28
2018-09-25T12:14:17.626Z,57.56
2018-09-25T12:15:10.523Z,55.22
2018-09-25T12:16:10.537Z,54.51
2018-09-25T12:17:10.503Z,55.86
2018-09-25T12:18:18.275Z,57.08
2018-09-25T12:19:10.477Z,56.57
2018-09-25T12:20:10.494Z,55.55
2018-09-25T12:21:10.456Z,56.07
2018-09-25T12:22:18.313Z,57.87
2018-09-25T12:23:18.361Z,58.69
2018-09-25T12:24:10.427Z,59.70
2018-09-25T12:25:10.450Z,59.60
2018-09-25T12:26:10.399Z,57.77
2018-09-25T12:27:18.381Z,57.77
2018-09-25T12:28:10.375Z,57.56
2018-09-25T12:29:10.365Z,57.54
2018-09-25T12:30:10.384Z,56.01
2018-09-25T12:31:17.888Z,57.23
2018-09-25T12:32:10.902Z,57.64
2018-09-25T12:33:10.321Z,59.27
2018-09-25T12:34:10.316Z,61.10
2018-09-25T12:35:10.297Z,59.67
2018-09-25T12:36:10.291Z,60.79
2018-09-25T12:37:10.301Z,58.04
2018-09-25T12:38:10.275Z,57.67
2018-09-25T12:39:10.251Z,57.95
2018-09-25T12:40:10.242Z,56.04
2018-09-25T12:41:10.273Z,56.04
2018-09-25T12:42:10.248Z,56.07
2018-09-25T12:43:10.272Z,56.37
2018-09-25T12:44:10.193Z,55.76
2018-09-25T12:45:10.182Z,57.08
2018-09-25T12:46:10.184Z,58.92
2018-09-25T12:47:10.163Z,59.50
2018-09-25T12:48:10.192Z,58.65
2018-09-25T12:49:10.148Z,54.26
2018-09-25T12:50:10.902Z,53.45
2018-09-25T12:51:10.116Z,52.73
2018-09-25T12:52:10.153Z,53.14